Time;durP1;ratioP1;P1;durP2;ratioP2;P2;SDS_P1;SDS_P2;PMS_P1;PMS_P2;Temp;Humidity;BMP_temperature;BMP_pressure;BME280_temperature;BME280_humidity;BME280_pressure;Samples;Min_cycle;Max_cycle;Signal;HPM_P1;HPM_P2
2021/04/01 00:01:23;;;;;;;26.90;14.40;;;;;;;14.39;48.71;101192.47;4995187;28;20043;-80
2021/04/01 00:04:07;;;;;;;;;;;;;;;14.47;48.67;101200.66;4993256;28;20427;-81
2021/04/01 00:06:52;;;;;;;44.20;14.93;;;;;;;14.52;48.49;101186.78;4996173;28;19914;-82
2021/04/01 00:09:37;;;;;;;43.10;17.17;;;;;;;14.48;48.58;101187.75;4994746;28;20278;-81
2021/04/01 00:12:22;;;;;;;36.80;17.08;;;;;;;14.46;48.73;101188.09;4993580;28;20046;-81
2021/04/01 00:15:08;;;;;;;34.40;16.58;;;;;;;14.61;48.32;101180.47;4998212;28;20050;-81
2021/04/01 00:17:53;;;;;;;44.42;17.40;;;;;;;14.53;48.74;101176.63;4987341;28;20042;-82
2021/04/01 00:20:38;;;;;;;24.92;11.48;;;;;;;14.48;48.94;101177.59;5005635;28;20438;-82
2021/04/01 00:23:24;;;;;;;28.30;13.60;;;;;;;14.53;48.70;101171.16;4996555;28;20042;-82
2021/04/01 00:26:09;;;;;;;40.20;16.55;;;;;;;14.53;48.62;101163.75;4998665;28;20042;-82
2021/04/01 00:28:53;;;;;;;41.65;15.98;;;;;;;14.47;49.06;101164.28;4999219;28;20062;-79
2021/04/01 00:31:39;;;;;;;37.95;17.38;;;;;;;14.39;49.31;101160.44;5001884;28;20050;-81
2021/04/01 00:34:24;;;;;;;33.63;16.15;;;;;;;14.31;49.13;101161.28;4998958;28;20050;-81
2021/04/01 00:37:09;;;;;;;34.40;12.90;;;;;;;14.37;49.15;101164.66;4997331;28;20038;-79
2021/04/01 00:39:53;;;;;;;25.02;12.65;;;;;;;14.24;49.50;101157.44;4997976;28;20038;-80
2021/04/01 00:42:39;;;;;;;;;;;;;;;14.25;49.75;101148.09;4999103;28;20050;-82
2021/04/01 00:45:24;;;;;;;38.08;16.05;;;;;;;14.27;50.09;101145.84;4997135;28;20286;-81
2021/04/01 00:48:10;;;;;;;34.92;16.77;;;;;;;14.31;49.79;101146.78;4995435;28;20045;-80
2021/04/01 00:50:54;;;;;;;36.53;16.40;;;;;;;14.29;49.64;101144.38;5001309;28;20046;-81
2021/04/01 00:53:40;;;;;;;33.55;15.38;;;;;;;14.22;49.82;101138.59;5001690;28;20464;-81
2021/04/01 00:56:25;;;;;;;22.63;12.05;;;;;;;14.14;50.39;101143.00;5001781;28;20046;-82
2021/04/01 00:59:10;;;;;;;46.65;16.08;;;;;;;14.01;50.95;101148.69;4998884;28;20050;-80
2021/04/01 01:02:04;;;;;;;30.17;14.13;;;;;;;13.88;51.64;101133.28;5001552;28;20053;-80
2021/04/01 01:04:55;;;;;;;45.13;16.73;;;;;;;13.81;52.44;101138.47;5006126;28;20045;-81
2021/04/01 01:07:41;;;;;;;35.88;17.63;;;;;;;13.73;51.99;101139.28;5018346;28;20037;-81
2021/04/01 01:10:31;;;;;;;43.30;16.67;;;;;;;13.56;52.36;101135.44;5015428;28;20425;-80
2021/04/01 01:13:16;;;;;;;33.17;17.17;;;;;;;13.61;52.72;101135.28;5012476;28;20042;-80
2021/04/01 01:16:01;;;;;;;41.72;19.08;;;;;;;13.78;52.74;101134.44;4997893;28;20046;-80
2021/04/01 01:18:45;;;;;;;38.33;17.75;;;;;;;13.67;52.41;101133.97;4996838;28;20528;-81
2021/04/01 01:21:31;;;;;;;22.95;12.60;;;;;;;13.53;53.15;101127.91;4995027;28;20050;-80
2021/04/01 01:24:15;;;;;;;;;;;;;;;13.68;53.91;101127.41;5000258;28;20046;-80
2021/04/01 01:27:05;;;;;;;37.78;17.33;;;;;;;13.76;52.53;101130.44;5001348;28;19913;-81
2021/04/01 01:29:50;;;;;;;31.80;17.00;;;;;;;13.70;52.97;101125.16;4996815;28;20038;-80
2021/04/01 01:32:39;;;;;;;31.65;13.93;;;;;;;13.55;52.90;101120.22;4997659;28;20042;-81
2021/04/01 01:35:27;;;;;;;35.03;18.25;;;;;;;13.55;53.07;101124.88;4996374;28;20042;-82
2021/04/01 01:38:13;;;;;;;34.05;18.13;;;;;;;13.52;53.37;101120.84;4994509;28;20042;-81
2021/04/01 01:40:58;;;;;;;54.47;18.95;;;;;;;13.57;53.79;101112.47;4994385;28;20038;-80
2021/04/01 01:43:43;;;;;;;28.00;14.43;;;;;;;13.45;53.76;101115.09;5000906;28;20050;-81
2021/04/01 01:46:28;;;;;;;35.38;18.50;;;;;;;13.61;53.60;101112.63;4993467;28;20046;-80
2021/04/01 01:49:13;;;;;;;28.08;13.63;;;;;;;13.67;53.52;101109.38;4998091;28;20054;-79
2021/04/01 01:51:59;;;;;;;35.65;19.15;;;;;;;13.57;53.42;101112.47;4994075;28;20491;-80
2021/04/01 01:54:45;;;;;;;38.85;18.40;;;;;;;13.58;53.93;101105.88;4999081;28;20038;-80
2021/04/01 01:57:30;;;;;;;35.83;14.82;;;;;;;13.79;52.76;101107.91;4998231;28;20050;-81
2021/04/01 02:00:21;;;;;;;26.00;13.73;;;;;;;13.86;52.43;101095.34;4995971;28;20038;-80
2021/04/01 02:03:08;;;;;;;40.58;19.70;;;;;;;13.87;52.22;101098.84;4999129;28;20038;-81
2021/04/01 02:05:53;;;;;;;38.92;18.70;;;;;;;13.83;52.77;101097.91;4999510;28;20427;-80
2021/04/01 02:08:38;;;;;;;26.98;14.43;;;;;;;13.28;54.38;101094.06;4999539;28;20046;-79
2021/04/01 02:11:23;;;;;;;42.95;19.85;;;;;;;13.28;54.45;101098.72;4997788;28;20491;-80
2021/04/01 02:14:09;;;;;;;38.10;19.52;;;;;;;13.38;54.55;101103.84;4978298;28;20510;-80
2021/04/01 02:16:54;;;;;;;33.05;15.77;;;;;;;13.32;55.33;101093.41;4991997;28;20042;-79
2021/04/01 02:19:39;;;;;;;37.58;18.73;;;;;;;13.35;54.98;101098.22;4993879;28;20507;-80
2021/04/01 02:22:24;;;;;;;;;;;;;;;13.27;55.40;101103.38;4998546;28;20062;-81
2021/04/01 02:25:10;;;;;;;35.85;17.98;;;;;;;13.03;54.73;101096.78;4992592;28;19918;-78
2021/04/01 02:27:54;;;;;;;42.28;19.17;;;;;;;12.77;55.54;101099.50;4997306;28;20042;-80
2021/04/01 02:30:41;;;;;;;25.75;12.85;;;;;;;12.93;54.98;101091.66;4998078;28;20050;-80
2021/04/01 02:33:29;;;;;;;35.63;18.48;;;;;;;12.69;55.63;101089.41;4995086;28;20418;-78
2021/04/01 02:36:14;;;;;;;42.15;17.63;;;;;;;12.43;56.78;101079.25;5007124;28;20034;-78
2021/04/01 02:38:59;;;;;;;25.73;13.10;;;;;;;12.61;55.82;101082.00;5003695;28;20046;-80
2021/04/01 02:41:45;;;;;;;33.20;16.42;;;;;;;12.67;55.62;101080.72;5002629;28;20042;-79
2021/04/01 02:44:30;;;;;;;41.47;16.20;;;;;;;12.73;55.14;101082.16;4995151;28;20042;-80
2021/04/01 02:47:14;;;;;;;36.47;18.52;;;;;;;12.92;54.84;101081.84;4999624;28;20047;-79
2021/04/01 02:49:59;;;;;;;34.42;17.08;;;;;;;12.93;54.64;101076.06;4996613;28;20042;-80
2021/04/01 02:52:55;;;;;;;32.85;18.10;;;;;;;12.85;54.44;101064.03;4994335;28;20042;-80
2021/04/01 02:55:40;;;;;;;23.85;12.32;;;;;;;12.97;54.80;101065.31;4998586;28;20042;-79
2021/04/01 02:58:25;;;;;;;26.30;13.10;;;;;;;12.91;54.11;101070.13;4996732;28;20414;-79
2021/04/01 03:01:10;;;;;;;32.90;15.65;;;;;;;12.58;54.81;101069.81;4995520;28;20042;-79
2021/04/01 03:03:56;;;;;;;29.60;13.13;;;;;;;12.65;54.38;101067.38;4999077;28;20038;-79
2021/04/01 03:06:41;;;;;;;34.75;16.25;;;;;;;12.55;54.87;101064.97;5000160;28;20046;-80
2021/04/01 03:09:26;;;;;;;29.48;11.95;;;;;;;12.68;54.68;101064.03;4994446;28;20453;-80
2021/04/01 03:12:11;;;;;;;35.45;15.95;;;;;;;12.77;53.86;101062.09;4999510;28;20494;-79
2021/04/01 03:14:56;;;;;;;21.98;11.63;;;;;;;12.79;54.15;101062.59;5009525;28;20554;-79
2021/04/01 03:17:42;;;;;;;35.35;14.38;;;;;;;12.57;54.60;101062.75;4992561;28;20050;-79
2021/04/01 03:20:27;;;;;;;37.20;14.68;;;;;;;12.49;54.62;101054.56;4993455;28;20038;-79
2021/04/01 03:23:12;;;;;;;21.20;10.05;;;;;;;12.72;55.29;101059.53;4995000;28;20042;-79
2021/04/01 03:25:58;;;;;;;28.70;10.90;;;;;;;12.69;53.72;101052.00;4994001;28;20051;-80
2021/04/01 03:28:42;;;;;;;36.50;15.10;;;;;;;12.82;53.10;101047.50;4997814;28;20410;-79
2021/04/01 03:31:27;;;;;;;36.17;15.60;;;;;;;13.01;52.71;101053.41;4996354;28;20046;-80
2021/04/01 03:34:12;;;;;;;25.15;10.88;;;;;;;12.82;53.19;101053.75;4994584;28;20042;-79
2021/04/01 03:36:58;;;;;;;29.15;12.77;;;;;;;12.54;54.27;101052.47;4999187;28;20038;-79
2021/04/01 03:39:42;;;;;;;43.05;14.68;;;;;;;12.46;54.56;101055.19;4975844;28;20051;-79
2021/04/01 03:42:27;;;;;;;33.65;13.50;;;;;;;12.51;54.52;101044.91;4976452;28;20037;-79
2021/04/01 03:45:13;;;;;;;33.63;11.82;;;;;;;12.63;54.13;101050.56;4992581;28;20046;-79
2021/04/01 03:47:58;;;;;;;45.17;16.83;;;;;;;12.54;54.27;101047.03;4994554;28;20050;-80
2021/04/01 03:50:43;;;;;;;31.92;13.43;;;;;;;12.64;54.14;101043.97;4992946;28;20062;-82
2021/04/01 03:53:28;;;;;;;38.67;15.95;;;;;;;12.67;53.78;101048.78;4998020;28;20042;-81
2021/04/01 03:56:13;;;;;;;39.25;15.77;;;;;;;12.62;54.09;101040.75;4997392;28;20050;-82
2021/04/01 03:59:05;;;;;;;36.22;12.02;;;;;;;12.72;53.51;101043.16;4995467;28;20046;-81
2021/04/01 04:05:10;;;;;;;39.65;14.63;;;;;;;12.52;53.71;101038.34;4995147;28;20034;-79
2021/04/01 04:13:59;;;;;;;33.13;14.07;;;;;;;12.94;52.28;101034.00;4997049;28;20289;-80
2021/04/01 04:16:44;;;;;;;32.45;13.13;;;;;;;12.75;52.91;101039.78;5000587;28;20034;-79
2021/04/01 04:19:29;;;;;;;30.23;13.63;;;;;;;12.67;52.85;101034.34;4998758;28;20046;-79
2021/04/01 04:22:14;;;;;;;24.02;10.27;;;;;;;12.66;53.06;101028.06;4996687;28;20042;-79
2021/04/01 04:25:00;;;;;;;20.90;9.93;;;;;;;12.77;53.60;101036.75;5000680;28;20050;-80
2021/04/01 04:30:48;;;;;;;28.30;13.20;;;;;;;12.98;52.44;101036.88;4995553;28;20042;-80
2021/04/01 04:33:34;;;;;;;26.17;11.23;;;;;;;12.54;53.54;101030.66;5000503;28;20042;-79
2021/04/01 04:36:19;;;;;;;23.33;12.65;;;;;;;12.54;54.93;101030.66;4997718;28;20038;-80
2021/04/01 04:39:04;;;;;;;27.30;11.18;;;;;;;12.53;55.10;101030.97;4995921;28;20126;-80
2021/04/01 04:41:49;;;;;;;25.42;10.45;;;;;;;12.51;54.92;101025.81;4995407;28;20566;-79
2021/04/01 04:44:34;;;;;;;25.02;10.63;;;;;;;12.57;54.52;101032.72;4988855;28;20034;-79
2021/04/01 04:47:19;;;;;;;39.47;12.52;;;;;;;12.62;54.04;101023.59;5000099;28;20042;-80
2021/04/01 04:50:06;;;;;;;35.28;14.45;;;;;;;12.57;55.03;101031.94;4989314;28;20042;-80
2021/04/01 04:52:51;;;;;;;27.70;14.05;;;;;;;12.63;53.76;101027.91;4994173;28;20038;-79
2021/04/01 04:55:37;;;;;;;41.47;14.48;;;;;;;12.52;54.48;101026.63;4987425;28;20030;-79
2021/04/01 04:58:26;;;;;;;35.47;13.52;;;;;;;12.56;54.00;101035.78;4991617;28;20054;-78
2021/04/01 05:07:00;;;;;;;68.75;15.15;;;;;;;12.82;52.58;101037.38;4994071;28;20047;-78
2021/04/01 05:09:44;;;;;;;47.50;11.57;;;;;;;12.92;52.38;101036.25;4990429;28;20038;-78
2021/04/01 05:12:29;;;;;;;32.90;11.07;;;;;;;12.93;52.75;101034.31;4995541;28;20406;-79
2021/04/01 05:15:14;;;;;;;46.38;15.15;;;;;;;12.91;52.45;101031.91;4997329;28;20242;-78
2021/04/01 05:18:22;;;;;;;32.90;13.20;;;;;;;12.89;52.68;101036.09;4996421;28;20046;-78
2021/04/01 05:21:08;;;;;;;34.65;16.90;;;;;;;12.44;54.35;101034.47;5000315;28;20062;-78
2021/04/01 05:23:54;;;;;;;28.00;12.82;;;;;;;12.92;53.14;101036.25;4997914;28;20038;-78
2021/04/01 05:29:57;;;;;;;40.00;15.48;;;;;;;13.20;52.77;101032.06;4992895;28;20034;-78
2021/04/01 05:32:43;;;;;;;40.20;15.88;;;;;;;13.57;52.72;101035.97;4998411;28;20051;-79
2021/04/01 05:35:29;;;;;;;70.68;18.02;;;;;;;13.84;53.05;101029.25;5057558;22;20052;-76
2021/04/01 05:38:14;;;;;;;40.92;16.00;;;;;;;13.95;52.88;101035.16;5061673;28;20048;-77
2021/04/01 05:41:00;;;;;;;27.05;12.82;;;;;;;13.76;51.68;101034.78;5065763;28;20048;-77
2021/04/01 05:43:52;;;;;;;37.63;15.43;;;;;;;14.36;50.21;101034.41;5078050;28;20044;-77
2021/04/01 05:46:42;;;;;;;33.35;15.95;;;;;;;14.61;49.46;101033.47;5074185;28;20036;-76
2021/04/01 06:04:37;;;;;;;32.00;15.07;;;;;;;18.24;40.82;101039.38;5062675;28;20041;-78
2021/04/01 06:07:29;;;;;;;36.28;15.60;;;;;;;17.69;41.34;101043.16;5057505;28;20037;-77
2021/04/01 06:10:18;;;;;;;45.10;14.18;;;;;;;18.49;39.86;101044.66;5056394;28;20045;-77
2021/04/01 06:13:09;;;;;;;36.47;15.30;;;;;;;17.42;42.62;101036.56;5065918;28;20037;-78
2021/04/01 06:16:02;;;;;;;35.40;15.50;;;;;;;17.66;42.10;101041.13;5063612;28;20033;-87
2021/04/01 06:18:54;;;;;;;41.10;15.60;;;;;;;17.66;42.37;101034.84;5066206;28;20037;-86
2021/04/01 06:21:45;;;;;;;37.78;15.60;;;;;;;18.26;40.92;101036.25;5062057;28;20040;-84
2021/04/01 06:24:30;;;;;;;40.55;15.43;;;;;;;18.47;40.45;101035.94;5067726;28;20037;-84
2021/04/01 06:27:26;;;;;;;39.13;15.88;;;;;;;18.67;40.54;101034.84;5060309;28;20041;-85
2021/04/01 06:30:57;;;;;;;130.18;19.67;;;;;;;18.72;40.24;101029.03;5063623;28;20049;-84
2021/04/01 06:33:23;;;;;;;121.53;20.95;;;;;;;18.56;40.81;101031.03;5060502;28;20041;-85
2021/04/01 06:36:17;;;;;;;50.70;16.92;;;;;;;18.29;41.69;101046.56;5061539;28;20045;-85
2021/04/01 06:39:03;;;;;;;35.13;15.48;;;;;;;18.19;41.94;101047.09;5081141;28;20036;-85
2021/04/01 06:41:51;;;;;;;53.58;16.08;;;;;;;18.36;41.02;101043.97;5080848;28;20048;-85
2021/04/01 06:44:53;;;;;;;51.17;17.08;;;;;;;19.00;39.64;101051.63;5084856;28;20040;-85
2021/04/01 06:47:41;;;;;;;43.53;16.77;;;;;;;20.24;37.31;101045.53;5081123;28;20028;-85
2021/04/01 06:50:36;;;;;;;47.70;16.77;;;;;;;21.77;34.16;101032.34;5086917;28;20044;-85
2021/04/01 06:53:30;;;;;;;45.30;15.60;;;;;;;23.60;30.53;101046.69;5083024;28;20048;-85
2021/04/01 06:56:30;;;;;;;45.83;16.48;;;;;;;23.35;31.13;101041.06;5080858;28;20028;-85
2021/04/01 06:59:42;;;;;;;42.80;15.90;;;;;;;23.55;30.97;101056.19;5080837;28;20060;-85
2021/04/01 07:02:34;;;;;;;40.47;15.10;;;;;;;24.43;28.71;101051.81;5080909;28;20037;-85
2021/04/01 07:05:25;;;;;;;43.75;15.60;;;;;;;23.67;29.85;101047.47;5053904;28;20041;-85
2021/04/01 07:08:11;;;;;;;48.58;23.95;;;;;;;24.82;27.66;101060.00;5077423;28;20032;-85
2021/04/01 07:11:01;;;;;;;52.75;21.30;;;;;;;24.36;27.73;101040.69;5081140;28;20048;-85
2021/04/01 07:13:52;;;;;;;59.97;24.00;;;;;;;24.94;27.39;101042.91;5084625;28;20493;-85
2021/04/01 07:35:46;;;;;;;40.22;15.65;;;;;;;28.13;22.10;101050.50;5083402;28;20040;-85
2021/04/01 07:47:39;;;;;;;37.00;15.15;;;;;;;26.96;22.97;101047.50;5087073;28;20040;-86
2021/04/01 07:50:26;;;;;;;42.13;15.65;;;;;;;28.49;20.79;101043.81;5073970;28;20044;-85
2021/04/01 07:53:13;;;;;;;113.88;16.88;;;;;;;29.07;20.96;101055.41;5089592;28;20036;-87
2021/04/01 07:56:15;;;;;;;47.60;14.82;;;;;;;30.67;18.68;101057.06;5085130;28;20461;-87
2021/04/01 08:04:42;;;;;;;37.28;14.18;;;;;;;32.03;17.13;101049.56;5081423;28;20234;-86
2021/04/01 08:07:32;;;;;;;27.15;13.52;;;;;;;28.17;21.00;101045.66;5085630;28;20040;-86
2021/04/01 08:10:18;;;;;;;28.20;12.73;;;;;;;30.10;18.66;101047.38;5083398;28;20044;-85
2021/04/01 08:13:06;;;;;;;36.80;13.02;;;;;;;30.76;18.74;101049.56;5086528;28;20040;-85
2021/04/01 08:15:56;;;;;;;36.50;14.52;;;;;;;28.27;21.20;101030.66;5082087;28;20036;-83
2021/04/01 08:18:45;;;;;;;32.47;14.10;;;;;;;31.82;18.15;101034.22;5084281;28;20037;-84
2021/04/01 08:21:30;;;;;;;44.42;16.17;;;;;;;33.44;16.35;101043.50;5084646;28;20041;-83
2021/04/01 08:24:19;;;;;;;31.90;13.60;;;;;;;29.87;19.70;101045.53;5085579;28;20036;-83
2021/04/01 08:33:18;;;;;;;31.65;12.95;;;;;;;31.41;18.61;101035.94;5080010;28;20052;-84
2021/04/01 08:36:07;;;;;;;30.77;11.82;;;;;;;34.01;16.01;101035.50;5077108;28;20055;-83
2021/04/01 08:38:53;;;;;;;30.73;11.52;;;;;;;33.15;17.02;101031.78;5075363;28;20052;-84
2021/04/01 08:41:56;;;;;;;52.67;13.00;;;;;;;34.59;15.62;101032.53;5060246;28;20036;-84
2021/04/01 08:44:53;;;;;;;33.75;13.63;;;;;;;33.10;17.25;101031.13;5089125;28;20032;-84
2021/04/01 08:48:15;;;;;;;45.78;16.00;;;;;;;37.40;13.64;101030.97;5084595;28;20492;-84
2021/04/01 08:51:15;;;;;;;24.67;11.70;;;;;;;34.89;14.58;101025.09;5084068;28;20040;-83
2021/04/01 08:54:22;;;;;;;36.80;13.80;;;;;;;38.28;12.08;101027.78;5076652;28;20040;-83
2021/04/01 08:57:27;;;;;;;21.02;8.40;;;;;;;35.61;13.11;101018.31;5077507;28;20040;-86
2021/04/01 09:00:16;;;;;;;26.80;9.20;;;;;;;34.64;14.04;101007.22;5080084;28;20048;-83
2021/04/01 09:03:02;;;;;;;22.98;8.20;;;;;;;34.18;14.37;101005.72;5063508;28;20550;-84
2021/04/01 09:05:54;;;;;;;21.85;9.25;;;;;;;34.59;13.66;101004.28;5078935;28;20044;-85
2021/04/01 09:08:53;;;;;;;25.35;8.90;;;;;;;34.04;14.34;101000.66;5073620;28;20068;-85
2021/04/01 09:14:33;;;;;;;33.38;10.82;;;;;;;33.44;14.50;100992.72;5083883;28;20045;-84
2021/04/01 09:17:28;;;;;;;25.83;10.38;;;;;;;34.31;14.12;100993.00;5080712;28;20024;-84
2021/04/01 09:20:19;;;;;;;35.63;11.23;;;;;;;35.02;13.29;100991.75;5065468;28;20044;-83
2021/04/01 09:23:08;;;;;;;27.25;11.65;;;;;;;34.85;13.59;100991.34;5082016;28;20037;-84
2021/04/01 09:25:56;;;;;;;26.40;11.82;;;;;;;35.05;12.88;100988.72;5078259;28;20045;-83
2021/04/01 09:28:44;;;;;;;32.33;10.25;;;;;;;33.97;13.79;100984.06;5083531;28;20040;-83
2021/04/01 09:31:38;;;;;;;29.38;10.50;;;;;;;34.34;13.82;100985.63;5079844;28;20048;-84
2021/04/01 09:34:24;;;;;;;29.55;11.38;;;;;;;35.49;13.15;100988.22;5078518;28;20040;-84
2021/04/01 09:37:15;;;;;;;35.67;11.63;;;;;;;35.08;13.39;100984.97;5081158;28;20312;-84
2021/04/01 09:40:11;;;;;;;38.58;13.73;;;;;;;34.65;14.04;100983.34;5080252;28;20049;-83
2021/04/01 09:43:27;;;;;;;44.65;21.83;;;;;;;35.29;13.79;100993.69;5077220;28;20044;-84
2021/04/01 09:46:13;;;;;;;65.20;23.85;;;;;;;35.28;13.94;100987.25;5079837;28;20041;-84
2021/04/01 09:49:09;;;;;;;47.25;20.98;;;;;;;35.02;13.71;100986.88;5080540;28;20048;-83
2021/04/01 09:51:55;;;;;;;39.53;18.50;;;;;;;34.78;13.46;100971.91;5082284;28;20037;-83
2021/04/01 09:54:45;;;;;;;40.88;15.00;;;;;;;34.82;13.48;100977.38;5078489;28;20044;-82
2021/04/01 09:57:46;;;;;;;41.20;16.67;;;;;;;33.65;14.21;100962.84;5074757;28;20511;-81
2021/04/01 10:03:33;;;;;;;100.85;22.17;;;;;;;34.46;14.28;100964.88;5082343;28;20028;-83
2021/04/01 10:06:51;;;;;;;44.58;15.15;;;;;;;34.10;14.21;100959.28;5078536;28;20040;-83
2021/04/01 10:09:51;;;;;;;40.47;16.70;;;;;;;33.62;14.13;100955.31;5077738;28;20029;-88
2021/04/01 10:12:41;;;;;;;52.85;15.98;;;;;;;33.40;14.29;100947.78;5080812;28;20036;-84
2021/04/01 10:15:30;;;;;;;41.58;15.82;;;;;;;36.33;12.33;100954.69;5078687;28;20040;-83
2021/04/01 10:18:19;;;;;;;40.92;14.30;;;;;;;35.59;12.59;100950.91;5076936;28;20409;-86
2021/04/01 10:21:09;;;;;;;43.63;12.77;;;;;;;35.07;13.08;100949.47;5050313;28;20044;-84
2021/04/01 10:23:56;;;;;;;30.60;9.82;;;;;;;34.08;14.08;100927.91;5061149;28;20028;-84
2021/04/01 10:26:44;;;;;;;26.02;11.30;;;;;;;34.40;14.05;100935.72;5075113;28;20036;-84
2021/04/01 10:32:53;;;;;;;43.92;15.90;;;;;;;34.03;14.74;100923.69;5077810;28;20508;-84
2021/04/01 10:35:42;;;;;;;58.03;18.20;;;;;;;34.07;13.98;100932.00;5077538;28;20040;-84
2021/04/01 10:38:28;;;;;;;51.42;17.50;;;;;;;34.50;13.36;100928.78;5077899;28;20396;-83
2021/04/01 10:41:18;;;;;;;61.40;18.83;;;;;;;34.34;13.97;100917.84;5061404;28;20037;-83
2021/04/01 10:44:06;;;;;;;67.82;21.77;;;;;;;33.05;15.23;100909.75;5063804;28;20036;-85
2021/04/01 10:46:54;;;;;;;67.75;23.75;;;;;;;32.24;16.05;100908.09;5077523;28;20411;-87
2021/04/01 10:49:40;;;;;;;64.20;25.58;;;;;;;33.49;15.71;100921.59;5078257;28;20029;-85
2021/04/01 10:52:32;;;;;;;57.20;25.30;;;;;;;33.97;15.32;100905.03;5079214;28;20484;-84
2021/04/01 10:55:17;;;;;;;84.15;26.98;;;;;;;33.98;15.45;100903.78;5083286;28;20055;-86
2021/04/01 10:58:10;;;;;;;459.20;47.30;;;;;;;33.82;15.67;100894.38;5078897;28;20420;-86
2021/04/01 11:00:56;;;;;;;61.87;24.20;;;;;;;34.72;15.57;100901.13;5085394;28;20029;-86
2021/04/01 11:03:44;;;;;;;52.38;22.75;;;;;;;37.04;13.24;100905.34;5084611;28;20036;-86
2021/04/01 11:06:33;;;;;;;55.55;24.50;;;;;;;38.02;12.14;100900.69;5082356;28;20071;-86
2021/04/01 11:09:19;;;;;;;58.40;23.65;;;;;;;37.24;12.53;100885.53;5080631;28;20036;-85
2021/04/01 11:15:07;;;;;;;62.75;27.50;;;;;;;36.77;13.86;100885.91;5085487;28;20420;-88
2021/04/01 11:18:14;;;;;;;65.03;29.48;;;;;;;37.43;13.17;100880.38;5084901;28;20040;-90
2021/04/01 11:21:00;;;;;;;69.50;29.88;;;;;;;38.69;12.08;100883.44;5088425;28;20048;-85
2021/04/01 11:23:46;;;;;;;58.75;27.88;;;;;;;37.03;13.89;100878.25;5089151;28;20032;-85
2021/04/01 11:26:32;;;;;;;73.03;29.60;;;;;;;36.25;13.93;100867.78;5075828;28;20044;-85
2021/04/01 11:29:17;;;;;;;67.80;32.13;;;;;;;35.07;15.49;100861.03;5079956;28;20033;-84
2021/04/01 11:32:12;;;;;;;75.40;32.97;;;;;;;33.57;16.94;100855.19;5078525;28;20416;-84
2021/04/01 11:35:02;;;;;;;64.20;27.50;;;;;;;34.09;16.46;100839.91;5076407;28;20032;-84
2021/04/01 11:37:51;;;;;;;71.03;32.45;;;;;;;33.73;17.01;100848.47;5081051;28;20032;-82
2021/04/01 11:40:40;;;;;;;73.45;31.27;;;;;;;34.40;16.31;100844.53;5094141;28;20032;-83
2021/04/01 11:43:32;;;;;;;80.43;32.25;;;;;;;32.14;18.55;100836.91;5085630;28;20048;-84
2021/04/01 11:46:20;;;;;;;82.75;33.25;;;;;;;31.30;19.39;100823.88;5076890;28;20036;-85
2021/04/01 11:49:06;;;;;;;78.93;32.65;;;;;;;32.13;19.09;100829.72;5092263;28;20040;-83
2021/04/01 11:51:51;;;;;;;75.57;32.30;;;;;;;32.45;18.84;100820.00;5086888;28;20032;-85
2021/04/01 11:54:37;;;;;;;85.32;33.55;;;;;;;33.24;17.66;100818.34;5105159;22;20040;-77
2021/04/01 11:57:32;;;;;;;79.72;31.23;;;;;;;32.62;18.48;100815.66;5088148;28;20398;-80
2021/04/01 12:00:30;;;;;;;72.60;31.48;;;;;;;33.10;18.12;100816.91;5093607;28;20048;-77
2021/04/01 12:03:26;;;;;;;80.10;32.60;;;;;;;34.10;16.51;100813.25;5091728;28;20052;-76
2021/04/01 12:06:12;;;;;;;70.32;30.90;;;;;;;35.14;16.26;100810.56;5092780;28;20429;-76
2021/04/01 12:08:59;;;;;;;81.32;31.67;;;;;;;34.85;15.88;100804.00;5093181;28;20044;-77
2021/04/01 12:11:45;;;;;;;74.70;31.90;;;;;;;36.29;14.88;100803.19;5091210;28;20036;-76
2021/04/01 12:14:38;;;;;;;83.20;31.48;;;;;;;34.88;15.96;100805.88;5092302;28;20048;-76
2021/04/01 12:17:39;;;;;;;77.90;30.40;;;;;;;35.15;15.69;100797.22;5092589;28;20036;-78
2021/04/01 12:20:24;;;;;;;87.70;32.10;;;;;;;35.29;15.63;100799.31;5096236;28;20434;-80
2021/04/01 12:23:14;;;;;;;83.95;30.92;;;;;;;33.41;17.28;100796.28;5096577;28;20044;-82
2021/04/01 12:26:03;;;;;;;93.10;31.35;;;;;;;33.87;16.36;100795.00;5096549;28;20227;-78
2021/04/01 12:29:00;;;;;;;77.32;27.52;;;;;;;34.91;15.82;100790.78;5096546;28;20036;-77
2021/04/01 12:31:48;;;;;;;94.55;29.85;;;;;;;35.91;14.28;100782.22;5096818;28;20032;-77
2021/04/01 12:34:33;;;;;;;78.90;30.73;;;;;;;37.56;13.30;100792.81;5095255;28;20048;-76
2021/04/01 12:37:18;;;;;;;71.40;28.70;;;;;;;37.72;12.75;100785.75;5099114;28;20032;-78
2021/04/01 12:40:19;;;;;;;87.07;25.52;;;;;;;34.98;14.42;100779.09;5097072;28;20036;-78
2021/04/01 12:43:09;;;;;;;61.72;25.58;;;;;;;34.57;15.26;100767.41;5093772;28;20036;-77
2021/04/01 12:45:54;;;;;;;75.35;28.27;;;;;;;35.30;14.98;100763.34;5095234;28;20040;-77
2021/04/01 12:48:40;;;;;;;65.00;27.17;;;;;;;35.80;14.38;100758.59;5094006;28;20043;-77
2021/04/01 12:51:25;;;;;;;85.82;33.30;;;;;;;34.50;16.03;100755.69;5093972;28;20040;-77
2021/04/01 12:54:12;;;;;;;77.55;29.58;;;;;;;34.18;16.28;100748.78;5092292;28;20032;-77
2021/04/01 12:57:03;;;;;;;67.07;25.85;;;;;;;32.29;17.80;100746.28;5093607;28;20040;-77
2021/04/01 12:59:50;;;;;;;68.85;28.58;;;;;;;32.95;17.24;100742.69;5094037;28;20028;-79
2021/04/01 13:02:36;;;;;;;65.70;25.60;;;;;;;31.41;18.06;100734.34;5078983;28;20048;-78
2021/04/01 13:05:21;;;;;;;62.00;23.83;;;;;;;29.52;21.09;100726.88;5096165;28;20052;-79
2021/04/01 13:10:52;;;;;;;93.85;29.55;;;;;;;29.16;21.68;100727.06;5093610;28;20048;-79
2021/04/01 13:13:37;;;;;;;78.80;25.33;;;;;;;28.96;21.58;100729.22;5087942;28;20040;-78
2021/04/01 13:16:22;;;;;;;78.78;28.83;;;;;;;28.66;22.56;100722.00;5092038;28;20031;-77
2021/04/01 13:19:08;;;;;;;77.72;26.20;;;;;;;28.77;21.76;100723.34;5097356;28;20044;-78
2021/04/01 13:22:06;;;;;;;67.40;23.70;;;;;;;28.42;21.77;100713.78;5087161;28;20040;-76
2021/04/01 13:27:39;;;;;;;64.53;25.38;;;;;;;28.53;21.69;100715.53;5093770;28;20032;-76
2021/04/01 13:30:25;;;;;;;67.72;25.35;;;;;;;28.82;22.02;100714.41;5093430;28;20419;-77
2021/04/01 13:36:02;;;;;;;64.18;23.00;;;;;;;29.38;20.82;100691.66;5092278;28;20040;-79
2021/04/01 13:38:47;;;;;;;66.22;22.63;;;;;;;29.68;20.20;100691.16;5093495;28;20032;-79
2021/04/01 13:47:28;;;;;;;63.70;22.40;;;;;;;28.09;21.78;100690.56;5092144;28;20032;-76
2021/04/01 13:50:15;;;;;;;65.70;22.45;;;;;;;29.17;20.55;100681.81;5097759;28;20040;-77
2021/04/01 13:56:17;;;;;;;66.15;22.77;;;;;;;30.29;19.76;100678.84;5093342;28;20036;-77
2021/04/01 14:11:17;;;;;;;71.68;22.27;;;;;;;34.24;15.65;100665.78;5092745;28;20044;-76
2021/04/01 14:14:03;;;;;;;58.40;22.20;;;;;;;33.78;16.21;100656.72;5091402;28;20417;-78
2021/04/01 14:16:55;;;;;;;49.50;20.80;;;;;;;32.08;17.10;100650.16;5091175;28;20398;-77
2021/04/01 14:19:42;;;;;;;63.40;18.17;;;;;;;31.14;17.81;100645.00;5081083;28;20035;-77
2021/04/01 14:22:27;;;;;;;50.13;18.73;;;;;;;30.27;19.14;100641.25;5091850;28;20040;-79
2021/04/01 14:25:26;;;;;;;52.17;19.70;;;;;;;29.81;19.82;100642.72;5091149;28;20501;-78
2021/04/01 14:28:11;;;;;;;53.72;17.75;;;;;;;29.82;19.31;100639.47;5094233;28;20031;-80
2021/04/01 14:30:57;;;;;;;45.67;17.40;;;;;;;28.68;20.16;100630.00;5093735;28;20040;-78
2021/04/01 14:33:44;;;;;;;47.42;16.92;;;;;;;28.35;20.19;100634.84;5093544;28;20032;-77
2021/04/01 14:36:29;;;;;;;38.22;15.73;;;;;;;28.16;20.62;100625.34;5093614;28;20035;-78
2021/04/01 14:39:15;;;;;;;43.30;18.10;;;;;;;27.96;20.60;100617.00;5077698;28;20044;-78
2021/04/01 14:42:05;;;;;;;44.40;16.73;;;;;;;27.75;20.75;100614.72;5077524;28;20036;-78
2021/04/01 14:44:50;;;;;;;40.42;14.20;;;;;;;27.85;20.71;100615.69;5093195;28;20494;-79